createdAt,value
2024-03-04T00:02:31.566Z,7.22
2024-03-04T00:07:57.315Z,7.25
2024-03-04T00:13:23.153Z,7.22
2024-03-04T00:18:48.881Z,7.24
2024-03-04T00:24:14.560Z,7.18
2024-03-04T00:29:40.232Z,7.18
2024-03-04T00:35:05.855Z,7.17
2024-03-04T00:40:32.558Z,7.15
2024-03-04T00:45:58.307Z,7.13
2024-03-04T00:51:24.123Z,7.09
2024-03-04T00:56:50.090Z,7.02
2024-03-04T01:02:15.816Z,6.96
2024-03-04T01:07:41.732Z,6.87
2024-03-04T01:13:07.501Z,6.80
2024-03-04T01:18:33.180Z,6.72
2024-03-04T01:23:58.971Z,6.66
2024-03-04T01:29:24.904Z,6.59
2024-03-04T01:34:50.809Z,6.53
2024-03-04T01:40:16.536Z,6.46
2024-03-04T01:45:46.903Z,6.36
2024-03-04T01:51:14.304Z,6.32
2024-03-04T01:56:40.651Z,6.29
2024-03-04T02:02:07.649Z,6.28
2024-03-04T02:07:33.945Z,6.22
2024-03-04T02:12:59.930Z,6.18
2024-03-04T02:18:29.438Z,6.10
2024-03-04T02:23:55.122Z,6.01
2024-03-04T02:29:20.801Z,5.93
2024-03-04T02:34:46.555Z,5.86
2024-03-04T02:40:15.568Z,5.77
2024-03-04T02:45:41.341Z,5.65
2024-03-04T02:51:06.985Z,5.58
2024-03-04T02:56:32.625Z,5.50
2024-03-04T03:01:58.583Z,5.42
2024-03-04T03:07:24.380Z,5.35
2024-03-04T03:12:50.125Z,5.27
2024-03-04T03:18:15.769Z,5.17
2024-03-04T03:23:41.528Z,5.09
2024-03-04T03:29:07.388Z,5.03
2024-03-04T03:34:33.358Z,4.95
2024-03-04T03:39:59.059Z,4.86
2024-03-04T03:45:25.927Z,4.84
2024-03-04T03:50:51.602Z,4.84
2024-03-04T03:56:17.270Z,4.86
2024-03-04T04:01:42.937Z,4.86
2024-03-04T04:07:07.239Z,4.84
2024-03-04T04:12:32.922Z,4.85
2024-03-04T04:17:58.637Z,4.84
2024-03-04T04:23:24.728Z,4.81
2024-03-04T04:28:50.555Z,4.78
2024-03-04T04:34:16.287Z,4.78
2024-03-04T04:39:41.947Z,4.76
2024-03-04T04:45:08.430Z,4.75
2024-03-04T04:50:34.138Z,4.74
2024-03-04T04:55:59.863Z,4.73
2024-03-04T05:01:25.880Z,4.74
2024-03-04T05:06:45.941Z,4.75
2024-03-04T05:12:11.597Z,4.73
2024-03-04T05:17:37.342Z,4.73
2024-03-04T05:23:03.912Z,4.73
2024-03-04T05:28:29.725Z,4.73
2024-03-04T05:33:55.453Z,4.70
2024-03-04T05:39:21.147Z,4.68
2024-03-04T05:44:46.924Z,4.63
2024-03-04T05:50:12.592Z,4.59
2024-03-04T05:55:38.586Z,4.53
2024-03-04T06:01:04.455Z,4.48
2024-03-04T06:06:31.216Z,4.46
2024-03-04T06:12:00.072Z,4.45
2024-03-04T06:17:27.208Z,4.43
2024-03-04T06:22:52.900Z,4.41
2024-03-04T06:28:18.534Z,4.44
2024-03-04T06:33:52.065Z,4.48
2024-03-04T06:39:19.641Z,4.55
2024-03-04T06:44:45.324Z,4.65
2024-03-04T06:50:11.093Z,4.75
2024-03-04T06:55:36.976Z,5.00
2024-03-04T07:01:02.815Z,5.28
2024-03-04T07:06:28.705Z,5.50
2024-03-04T07:11:54.325Z,5.76
2024-03-04T07:17:19.971Z,6.09
2024-03-04T07:22:45.776Z,6.41
2024-03-04T07:28:11.531Z,6.67
2024-03-04T07:33:37.493Z,6.87
2024-03-04T07:39:03.199Z,7.03
2024-03-04T07:44:29.200Z,7.16
2024-03-04T07:49:54.977Z,7.35
2024-03-04T07:55:13.492Z,7.47
2024-03-04T08:00:40.199Z,7.64
2024-03-04T08:06:05.936Z,7.83
2024-03-04T08:11:31.631Z,8.04
2024-03-04T08:16:57.281Z,8.22
2024-03-04T08:22:22.998Z,8.29
2024-03-04T08:27:48.687Z,8.43
2024-03-04T08:33:14.446Z,8.56
2024-03-04T08:38:30.053Z,8.72
2024-03-04T08:43:55.712Z,8.88
2024-03-04T08:49:21.595Z,8.98
2024-03-04T08:54:47.311Z,9.03
2024-03-04T09:00:13.234Z,9.28
2024-03-04T09:05:32.728Z,9.58
2024-03-04T09:10:58.693Z,9.81
2024-03-04T09:16:25.615Z,9.97
2024-03-04T09:21:51.282Z,10.17
2024-03-04T09:27:16.970Z,10.30
2024-03-04T09:32:42.698Z,10.36
2024-03-04T09:38:08.403Z,10.24
2024-03-04T09:43:38.021Z,10.15
2024-03-04T09:49:05.935Z,10.10
2024-03-04T09:54:35.324Z,9.99
2024-03-04T10:00:01.511Z,10.00
2024-03-04T10:05:28.701Z,10.02
2024-03-04T10:10:54.622Z,10.00
2024-03-04T10:16:20.913Z,10.01
2024-03-04T10:21:47.587Z,10.06
2024-03-04T10:27:05.784Z,10.06
2024-03-04T10:32:31.617Z,10.15
2024-03-04T10:37:57.491Z,10.19
2024-03-04T10:43:15.898Z,10.25
2024-03-04T10:48:41.636Z,10.38
2024-03-04T10:54:06.608Z,10.37
2024-03-04T10:59:33.935Z,10.40
2024-03-04T11:05:02.254Z,10.41
2024-03-04T11:10:36.469Z,10.48
2024-03-04T11:16:01.667Z,10.68
2024-03-04T11:21:27.706Z,10.81
2024-03-04T11:26:54.059Z,10.89
2024-03-04T11:32:20.311Z,11.05
2024-03-04T11:37:49.065Z,11.23
2024-03-04T11:43:14.939Z,11.32
2024-03-04T11:48:52.829Z,11.51
2024-03-04T11:54:18.827Z,11.56
2024-03-04T11:59:44.615Z,11.53
2024-03-04T12:05:02.834Z,11.46
2024-03-04T12:10:30.188Z,11.53
2024-03-04T12:15:55.957Z,11.84
2024-03-04T12:21:24.992Z,12.05
2024-03-04T12:26:40.592Z,12.24
2024-03-04T12:32:06.508Z,12.30
2024-03-04T12:37:41.323Z,12.40
2024-03-04T12:43:12.040Z,12.66
2024-03-04T12:48:40.247Z,12.79
2024-03-04T12:54:06.613Z,12.63
2024-03-04T12:59:32.289Z,12.55
2024-03-04T13:04:58.028Z,12.56
2024-03-04T13:10:23.834Z,12.50
2024-03-04T13:15:49.518Z,12.39
2024-03-04T13:21:15.252Z,12.29
2024-03-04T13:26:49.544Z,12.25
2024-03-04T13:32:15.196Z,12.18
2024-03-04T13:37:41.092Z,12.25
2024-03-04T13:43:13.183Z,12.26
2024-03-04T13:48:45.104Z,12.26
2024-03-04T13:54:10.777Z,12.28
2024-03-04T13:59:36.434Z,12.32
2024-03-04T14:05:02.196Z,12.47
2024-03-04T14:10:33.346Z,12.55
2024-03-04T14:15:53.249Z,12.64
2024-03-04T14:21:18.930Z,12.75
2024-03-04T14:26:44.675Z,12.82
2024-03-04T14:32:11.010Z,12.89
2024-03-04T14:37:36.745Z,12.91
2024-03-04T14:43:02.435Z,12.87
2024-03-04T14:48:21.491Z,12.89
2024-03-04T14:53:47.179Z,12.88
2024-03-04T14:59:12.799Z,12.83
2024-03-04T15:04:38.493Z,12.74
2024-03-04T15:10:04.312Z,12.64
2024-03-04T15:15:25.719Z,12.58
2024-03-04T15:20:51.432Z,12.53
2024-03-04T15:26:17.075Z,12.46
2024-03-04T15:31:35.326Z,12.40
2024-03-04T15:37:01.148Z,12.39
2024-03-04T15:42:27.483Z,12.34
2024-03-04T15:47:53.240Z,12.29
2024-03-04T15:53:19.008Z,12.23
2024-03-04T15:58:44.913Z,12.15
2024-03-04T16:04:10.685Z,12.05
2024-03-04T16:09:36.493Z,11.94
2024-03-04T16:15:02.136Z,11.81
2024-03-04T16:20:29.541Z,11.66
2024-03-04T16:25:55.239Z,11.51
2024-03-04T16:31:20.959Z,11.37
2024-03-04T16:36:46.627Z,11.25
2024-03-04T16:42:11.569Z,11.14
2024-03-04T16:47:37.285Z,11.02
2024-03-04T16:52:52.927Z,10.89
2024-03-04T16:58:11.610Z,10.76
2024-03-04T17:03:37.432Z,10.64
2024-03-04T17:08:47.834Z,10.52
2024-03-04T17:14:06.286Z,10.41
2024-03-04T17:19:12.432Z,10.30
2024-03-04T17:24:20.772Z,10.19
2024-03-04T17:29:39.877Z,10.09
2024-03-04T17:34:56.756Z,9.99
2024-03-04T17:40:05.608Z,9.91
2024-03-04T17:45:17.017Z,9.83
2024-03-04T17:50:32.620Z,9.79
2024-03-04T17:55:40.680Z,9.77
2024-03-04T18:00:56.898Z,9.72
2024-03-04T18:06:22.628Z,9.65
2024-03-04T18:11:42.929Z,9.57
2024-03-04T18:16:48.666Z,9.51
2024-03-04T18:21:56.738Z,9.47
2024-03-04T18:27:04.483Z,9.44
2024-03-04T18:32:10.044Z,9.43
2024-03-04T18:37:25.839Z,9.40
2024-03-04T18:42:51.554Z,9.38
2024-03-04T18:47:57.548Z,9.34
2024-03-04T18:53:06.194Z,9.34
2024-03-04T18:58:20.135Z,9.33
2024-03-04T19:03:25.591Z,9.35
2024-03-04T19:08:31.225Z,9.34
2024-03-04T19:13:48.107Z,9.34
2024-03-04T19:18:56.441Z,9.33
2024-03-04T19:24:04.852Z,9.31
2024-03-04T19:29:30.500Z,9.31
2024-03-04T19:34:46.162Z,9.29
2024-03-04T19:40:02.547Z,9.27
2024-03-04T19:45:12.261Z,9.27
2024-03-04T19:50:21.040Z,9.25
2024-03-04T19:55:46.818Z,9.23
2024-03-04T20:01:12.621Z,9.21
2024-03-04T20:06:40.296Z,9.18
2024-03-04T20:12:07.005Z,9.14
2024-03-04T20:17:33.644Z,9.12
2024-03-04T20:22:59.486Z,9.10
2024-03-04T20:28:27.697Z,9.09
2024-03-04T20:33:53.964Z,9.08
2024-03-04T20:39:19.640Z,9.05
2024-03-04T20:44:45.251Z,9.03
2024-03-04T20:50:10.909Z,9.00
2024-03-04T20:55:36.917Z,8.95
2024-03-04T21:00:55.894Z,8.87
2024-03-04T21:06:21.728Z,8.86
2024-03-04T21:11:37.330Z,8.81
2024-03-04T21:17:03.032Z,8.73
2024-03-04T21:22:28.389Z,8.65
2024-03-04T21:27:54.131Z,8.59
2024-03-04T21:33:19.842Z,8.54
2024-03-04T21:38:35.271Z,8.51
2024-03-04T21:44:01.170Z,8.49
2024-03-04T21:49:26.934Z,8.46
2024-03-04T21:54:54.141Z,8.45
2024-03-04T22:00:21.299Z,8.39
2024-03-04T22:05:38.065Z,8.35
2024-03-04T22:10:56.854Z,8.33
2024-03-04T22:16:22.923Z,8.30
2024-03-04T22:21:48.575Z,8.28
2024-03-04T22:27:12.759Z,8.26
2024-03-04T22:32:38.515Z,8.25
2024-03-04T22:38:04.237Z,8.22
2024-03-04T22:43:30.148Z,8.19
2024-03-04T22:48:56.061Z,8.19
2024-03-04T22:54:21.948Z,8.16
2024-03-04T22:59:47.590Z,8.12
2024-03-04T23:05:13.413Z,8.10
2024-03-04T23:10:39.282Z,8.03
2024-03-04T23:16:05.228Z,7.93
2024-03-04T23:21:31.361Z,7.78
2024-03-04T23:26:57.164Z,7.64
2024-03-04T23:32:22.817Z,7.55
2024-03-04T23:37:48.801Z,7.47
2024-03-04T23:43:14.564Z,7.41
2024-03-04T23:48:40.321Z,7.36
2024-03-04T23:54:05.950Z,7.26
2024-03-04T23:59:31.799Z,7.17
